Impacts TAF Board INFO
FOR SITUATIONAL AWARENESS. NOT TO BE USED FOR FLIGHT PLANNING PURPOSES.
IDs:

KSLC - Salt Lake City Intl, UT, US

Issued at 0259 UTC 19 Feb 2018
Updated at 0335 UTC 19 Feb 2018
Potential Impact None Slight Moderate High
Time<<19/16Z 19/17Z 19/18Z 19/19Z 19/20Z 19/21Z 19/22Z 19/23Z 20/00Z 20/01Z 20/02Z 20/03Z 20/04Z>>
Type PRVL PRVL PRVL PRVL PRVL PRVL PRVL PRVL PRVL PRVL PRVL PRVL PRVL
VIS 2 2 2 2 >6 >6 >6 >6 >6 >6 >6 >6 >6
CIG 7 7 7 7 15 15 15 15 15 15 15 15 15
Cover OVX OVX OVX OVX BKN BKN BKN BKN BKN BKN BKN BKN BKN
FltCat IFR IFR IFR IFR MVFR MVFR MVFR MVFR MVFR MVFR MVFR MVFR MVFR
WX -SN BR -SN BR -SN BR -SN BR VCSH VCSH VCSH VCSH VCSH VCSH VCSH VCSH VCSH
WDir 310 310 310 310 320 320 320 320 320 320 320 320 320
WSpd 8 8 8 8 10 10 10 10 10 10 10 10 10
WGst -- -- -- -- -- -- -- -- -- -- -- -- --

Raw TAF
KSLC 190259Z 1903/2006 36005KT 3SM -SN BR OVC025
  TEMPO 1903/1906 1SM -SN BR VV006
  FM190600 34005KT 2SM -SN BR BKN012 OVC020
  FM190900 34008KT P6SM VCSH SCT020 BKN035
  FM191300 31008KT 2SM -SN BR VV007
  FM192000 32010KT P6SM VCSH BKN015 BKN040


METAR Board
Radar Display
Forecast Discussion

FOR SITUATIONAL AWARENESS. NOT TO BE USED FOR FLIGHT PLANNING PURPOSES.